Terminal Aerodrome Forecast
Issued by NWS Quad Cities IA IL

Home | Current Version | Previous Version | Text Only | Print | Product List | Glossary On
Versions: 1 2 3 4 5 6 7 8 9 10 11 12 13 14 15 16 17 18 19 20
000
FTUS43 KDVN 131730
TAFDBQ
TAF
KDBQ 131730Z 1318/1418 30024G34KT P6SM OVC025
     FM132100 33025G35KT P6SM OVC015
     FM140200 35014KT P6SM OVC020
     FM140600 36007KT P6SM BKN035
     FM141200 28005KT P6SM BKN050=

USA.gov is the U.S. government's official web portal to all federal, state and local government web resources and services.